createdAt,value
2022-12-08T00:04:34.507Z,6.3
2022-12-08T00:09:40.722Z,6.3
2022-12-08T00:14:46.922Z,6.2
2022-12-08T00:24:59.347Z,6.2
2022-12-08T00:30:05.541Z,6.2
2022-12-08T00:35:11.757Z,6.3
2022-12-08T00:40:17.956Z,6.3
2022-12-08T00:45:24.174Z,6.3
2022-12-08T00:50:30.379Z,6.3
2022-12-08T00:55:36.635Z,6.3
2022-12-08T01:00:42.994Z,6.3
2022-12-08T01:05:49.043Z,6.3
2022-12-08T01:10:55.300Z,6.3
2022-12-08T01:16:01.416Z,6.3
2022-12-08T01:21:07.621Z,6.3
2022-12-08T01:26:12.846Z,6.3
2022-12-08T01:31:19.114Z,6.4
2022-12-08T01:36:25.272Z,6.4
2022-12-08T01:41:31.459Z,6.4
2022-12-08T01:46:37.740Z,6.4
2022-12-08T01:51:43.881Z,6.4
2022-12-08T01:56:49.108Z,6.4
2022-12-08T02:01:55.327Z,6.4
2022-12-08T02:07:07.688Z,6.4
2022-12-08T02:12:07.731Z,6.4
2022-12-08T02:17:13.935Z,6.4
2022-12-08T02:22:20.137Z,6.4
2022-12-08T02:27:26.354Z,6.4
2022-12-08T02:32:32.558Z,6.4
2022-12-08T02:37:38.818Z,6.4
2022-12-08T02:42:44.970Z,6.4
2022-12-08T02:47:51.190Z,6.4
2022-12-08T02:52:57.496Z,6.4
2022-12-08T02:58:03.591Z,6.4
2022-12-08T03:03:09.959Z,6.4
2022-12-08T03:08:16.075Z,6.4
2022-12-08T03:13:22.213Z,6.4
2022-12-08T03:18:28.422Z,6.4
2022-12-08T03:23:34.629Z,6.4
2022-12-08T03:28:40.835Z,6.4
2022-12-08T03:33:47.051Z,6.4
2022-12-08T03:38:53.257Z,6.4
2022-12-08T03:43:59.505Z,6.4
2022-12-08T03:49:05.671Z,6.5
2022-12-08T03:54:11.874Z,6.5
2022-12-08T03:59:18.077Z,6.5
2022-12-08T04:04:24.302Z,6.5
2022-12-08T04:09:30.497Z,6.5
2022-12-08T04:14:36.706Z,6.5
2022-12-08T04:19:42.926Z,6.5
2022-12-08T04:24:49.256Z,6.5
2022-12-08T04:29:55.320Z,6.5
2022-12-08T04:35:01.680Z,6.5
2022-12-08T04:40:07.860Z,6.5
2022-12-08T04:45:13.942Z,6.5
2022-12-08T04:50:20.159Z,6.5
2022-12-08T04:55:26.369Z,6.5
2022-12-08T05:00:32.569Z,6.6
2022-12-08T05:05:38.932Z,6.6
2022-12-08T05:10:44.987Z,6.6
2022-12-08T05:15:51.293Z,6.6
2022-12-08T05:20:57.400Z,6.6
2022-12-08T05:26:03.607Z,6.6
2022-12-08T05:31:09.899Z,6.6
2022-12-08T05:36:16.019Z,6.6
2022-12-08T05:41:22.237Z,6.6
2022-12-08T05:46:28.520Z,6.6
2022-12-08T05:51:34.657Z,6.7
2022-12-08T05:56:40.863Z,6.7
2022-12-08T06:01:47.143Z,6.7
2022-12-08T06:06:53.266Z,6.7
2022-12-08T06:11:59.596Z,6.7
2022-12-08T06:17:05.811Z,6.7
2022-12-08T06:22:11.889Z,6.6
2022-12-08T06:27:18.093Z,6.6
2022-12-08T06:32:27.889Z,6.6
2022-12-08T06:37:30.517Z,6.5
2022-12-08T06:42:36.737Z,6.5
2022-12-08T06:47:42.944Z,6.5
2022-12-08T06:52:58.458Z,6.4
2022-12-08T06:57:57.091Z,6.4
2022-12-08T07:03:01.573Z,6.4
2022-12-08T07:13:13.960Z,6.3
2022-12-08T07:18:20.167Z,6.3
2022-12-08T07:23:26.375Z,6.3
2022-12-08T07:28:31.594Z,6.3
2022-12-08T07:33:37.797Z,6.3
2022-12-08T07:38:44.009Z,6.2
2022-12-08T07:43:50.244Z,6.2
2022-12-08T07:48:56.425Z,6.2
2022-12-08T07:54:02.632Z,6.2
2022-12-08T07:59:09.095Z,6.3
2022-12-08T08:04:15.100Z,6.3
2022-12-08T08:09:21.279Z,6.3
2022-12-08T08:14:27.463Z,6.3
2022-12-08T08:19:33.673Z,6.3
2022-12-08T08:24:44.661Z,6.4
2022-12-08T08:29:46.134Z,6.4
2022-12-08T08:34:52.304Z,6.4
2022-12-08T08:39:58.499Z,6.4
2022-12-08T08:45:04.710Z,6.4
2022-12-08T08:50:10.922Z,6.5
2022-12-08T08:55:17.139Z,6.5
2022-12-08T09:00:23.326Z,6.5
2022-12-08T09:05:29.540Z,6.5
2022-12-08T09:10:35.750Z,6.5
2022-12-08T09:15:42.079Z,6.5
2022-12-08T09:20:48.164Z,6.4
2022-12-08T09:25:54.374Z,6.4
2022-12-08T09:31:00.609Z,6.4
2022-12-08T09:36:06.778Z,6.3
2022-12-08T09:41:13.025Z,6.3
2022-12-08T09:46:19.321Z,6.3
2022-12-08T09:51:25.403Z,6.3
2022-12-08T09:56:31.616Z,6.3
2022-12-08T10:01:37.879Z,6.3
2022-12-08T10:06:44.088Z,6.3
2022-12-08T10:11:50.236Z,6.3
2022-12-08T10:16:56.489Z,6.3
2022-12-08T10:27:08.877Z,6.3
2022-12-08T10:32:15.060Z,6.4
2022-12-08T10:37:21.272Z,6.4
2022-12-08T10:42:27.477Z,6.4
2022-12-08T10:47:33.691Z,6.5
2022-12-08T10:52:39.895Z,6.5
2022-12-08T10:57:46.111Z,6.6
2022-12-08T11:02:52.378Z,6.6
2022-12-08T11:07:58.543Z,6.6
2022-12-08T11:13:04.731Z,6.7
2022-12-08T11:18:10.937Z,6.7
2022-12-08T11:23:17.149Z,6.7
2022-12-08T11:28:23.391Z,6.8
2022-12-08T11:33:29.551Z,6.8
2022-12-08T11:38:35.757Z,6.8
2022-12-08T11:43:41.962Z,6.9
2022-12-08T11:48:48.196Z,6.9
2022-12-08T11:53:54.390Z,6.9
2022-12-08T11:59:00.589Z,7.0
2022-12-08T12:04:06.795Z,7.0
2022-12-08T12:09:13.005Z,7.0
2022-12-08T12:14:19.210Z,7.0
2022-12-08T12:19:25.416Z,7.0
2022-12-08T12:24:35.536Z,7.0
2022-12-08T12:29:37.825Z,7.0
2022-12-08T12:34:44.042Z,7.0
2022-12-08T12:39:50.253Z,7.0
2022-12-08T12:44:56.453Z,7.0
2022-12-08T12:50:03.056Z,7.0
2022-12-08T12:55:08.870Z,7.0
2022-12-08T13:00:14.210Z,7.0
2022-12-08T13:05:20.302Z,7.0
2022-12-08T13:10:26.543Z,7.1
2022-12-08T13:15:32.711Z,7.1
2022-12-08T13:20:38.939Z,7.1
2022-12-08T13:25:45.130Z,7.1
2022-12-08T13:30:51.375Z,7.1
2022-12-08T13:35:57.549Z,7.1
2022-12-08T13:41:03.747Z,7.1
2022-12-08T13:46:57.862Z,7.1
2022-12-08T13:57:00.814Z,7.1
2022-12-08T14:01:28.642Z,7.1
2022-12-08T14:06:34.852Z,7.1
2022-12-08T14:11:40.994Z,7.1
2022-12-08T14:16:47.200Z,7.1
2022-12-08T14:21:53.408Z,7.1
2022-12-08T14:26:59.628Z,7.0
2022-12-08T14:32:05.826Z,7.0
2022-12-08T14:37:12.036Z,7.0
2022-12-08T14:42:18.236Z,6.9
2022-12-08T14:47:24.446Z,6.9
2022-12-08T14:52:30.655Z,6.9
2022-12-08T14:57:36.863Z,6.9
2022-12-08T15:02:43.066Z,6.9
2022-12-08T15:07:49.342Z,6.8
2022-12-08T15:12:55.537Z,6.8
2022-12-08T15:18:01.750Z,6.7
2022-12-08T15:23:07.904Z,6.6
2022-12-08T15:28:14.107Z,6.6
2022-12-08T15:33:20.400Z,6.5
2022-12-08T15:38:26.519Z,6.5
2022-12-08T15:43:32.727Z,6.5
2022-12-08T15:48:38.932Z,6.4
2022-12-08T15:53:45.151Z,6.4
2022-12-08T15:58:54.694Z,6.4
2022-12-08T16:09:11.699Z,6.4
2022-12-08T16:14:47.433Z,6.4
2022-12-08T16:19:16.175Z,6.4
2022-12-08T16:24:22.398Z,6.4
2022-12-08T16:29:28.595Z,6.4
2022-12-08T16:34:34.805Z,6.3
2022-12-08T16:39:45.627Z,6.3
2022-12-08T16:44:47.209Z,6.2
2022-12-08T16:49:53.425Z,6.2
2022-12-08T16:54:59.625Z,6.1
2022-12-08T17:00:06.051Z,6.1
2022-12-08T17:05:12.119Z,6.1
2022-12-08T17:10:18.246Z,6.0
2022-12-08T17:15:24.461Z,5.9
2022-12-08T17:20:30.665Z,5.8
2022-12-08T17:25:36.876Z,5.8
2022-12-08T17:30:43.075Z,5.7
2022-12-08T17:35:49.284Z,5.7
2022-12-08T17:40:58.550Z,5.6
2022-12-08T17:46:01.798Z,5.6
2022-12-08T17:51:07.907Z,5.6
2022-12-08T17:56:14.127Z,5.5
2022-12-08T18:01:20.349Z,5.5
2022-12-08T18:06:30.954Z,5.5
2022-12-08T18:11:32.753Z,5.5
2022-12-08T18:16:39.014Z,5.5
2022-12-08T18:21:45.166Z,5.5
2022-12-08T18:26:51.361Z,5.5
2022-12-08T18:31:56.577Z,5.5
2022-12-08T18:37:02.876Z,5.5
2022-12-08T18:42:08.995Z,5.5
2022-12-08T18:47:15.201Z,5.5
2022-12-08T18:52:28.108Z,5.6
2022-12-08T18:57:27.636Z,5.5
2022-12-08T19:02:32.962Z,5.5
2022-12-08T19:07:39.146Z,5.5
2022-12-08T19:12:45.258Z,5.5
2022-12-08T19:17:51.464Z,5.5
2022-12-08T19:22:57.675Z,5.4
2022-12-08T19:28:04.024Z,5.4
2022-12-08T19:33:10.093Z,5.3
2022-12-08T19:38:16.307Z,5.2
2022-12-08T19:43:22.508Z,5.1
2022-12-08T19:48:28.706Z,5.0
2022-12-08T19:53:34.935Z,5.0
2022-12-08T19:58:41.128Z,4.9
2022-12-08T20:03:47.426Z,4.8
2022-12-08T20:08:53.583Z,4.7
2022-12-08T20:13:59.779Z,4.6
2022-12-08T20:19:05.947Z,4.6
2022-12-08T20:29:18.367Z,4.5
2022-12-08T20:34:24.569Z,4.4
2022-12-08T20:39:30.777Z,4.3
2022-12-08T20:44:37.126Z,4.3
2022-12-08T20:49:43.203Z,4.2
2022-12-08T20:54:49.638Z,4.2
2022-12-08T20:59:55.607Z,4.1
2022-12-08T21:05:01.990Z,4.1
2022-12-08T21:10:08.229Z,4.1
2022-12-08T21:15:14.347Z,4.1
2022-12-08T21:20:20.500Z,4.1
2022-12-08T21:25:26.729Z,4.2
2022-12-08T21:30:33.031Z,4.2
2022-12-08T21:35:39.163Z,4.3
2022-12-08T21:40:45.442Z,4.3
2022-12-08T21:45:51.532Z,4.3
2022-12-08T21:50:57.801Z,4.4
2022-12-08T21:56:04.087Z,4.4
2022-12-08T22:01:10.390Z,4.4
2022-12-08T22:06:16.446Z,4.5
2022-12-08T22:11:22.503Z,4.5
2022-12-08T22:16:28.975Z,4.6
2022-12-08T22:21:34.924Z,4.6
2022-12-08T22:26:41.323Z,4.6
2022-12-08T22:31:47.408Z,4.7
2022-12-08T22:36:53.756Z,4.7
2022-12-08T22:41:59.751Z,4.7
2022-12-08T22:47:06.250Z,4.8
2022-12-08T22:52:12.156Z,4.9
2022-12-08T22:57:18.484Z,4.9
2022-12-08T23:02:24.868Z,4.9
2022-12-08T23:07:30.781Z,5.0
2022-12-08T23:12:37.021Z,5.0
2022-12-08T23:17:43.513Z,5.0
2022-12-08T23:22:49.411Z,5.1
2022-12-08T23:27:55.623Z,5.1
2022-12-08T23:33:01.957Z,5.1
2022-12-08T23:38:08.089Z,5.1
2022-12-08T23:43:14.347Z,5.2
2022-12-08T23:48:20.463Z,5.2
2022-12-08T23:53:28.436Z,5.2
2022-12-08T23:58:32.937Z,5.2
